sensor_id;sensor_type;location;lat;lon;timestamp;P1;durP1;ratioP1;P2;durP2;ratioP2
86144;SDS011;76801;42.716;23.178;2024-03-02T00:00:13;32.22;;;14.68;;
86144;SDS011;76801;42.716;23.178;2024-03-02T00:02:41;30.63;;;15.55;;
86144;SDS011;76801;42.716;23.178;2024-03-02T00:05:07;25.05;;;13.73;;
86144;SDS011;76801;42.716;23.178;2024-03-02T00:07:32;26.02;;;15.15;;
86144;SDS011;76801;42.716;23.178;2024-03-02T00:09:58;24.27;;;14.32;;
86144;SDS011;76801;42.716;23.178;2024-03-02T00:12:24;27.83;;;14.80;;
86144;SDS011;76801;42.716;23.178;2024-03-02T00:14:49;26.17;;;13.98;;
86144;SDS011;76801;42.716;23.178;2024-03-02T00:17:17;29.88;;;15.30;;
86144;SDS011;76801;42.716;23.178;2024-03-02T00:19:49;29.33;;;13.50;;
86144;SDS011;76801;42.716;23.178;2024-03-02T00:22:15;29.77;;;15.18;;
86144;SDS011;76801;42.716;23.178;2024-03-02T00:24:40;28.02;;;15.88;;
86144;SDS011;76801;42.716;23.178;2024-03-02T00:27:05;30.45;;;14.52;;
86144;SDS011;76801;42.716;23.178;2024-03-02T00:29:32;30.13;;;15.60;;
86144;SDS011;76801;42.716;23.178;2024-03-02T00:31:59;27.08;;;14.55;;
86144;SDS011;76801;42.716;23.178;2024-03-02T00:34:26;48.78;;;29.00;;
86144;SDS011;76801;42.716;23.178;2024-03-02T00:36:51;39.15;;;21.15;;
86144;SDS011;76801;42.716;23.178;2024-03-02T00:39:16;34.38;;;17.55;;
86144;SDS011;76801;42.716;23.178;2024-03-02T00:41:42;30.55;;;15.52;;
86144;SDS011;76801;42.716;23.178;2024-03-02T00:44:14;27.98;;;14.13;;
86144;SDS011;76801;42.716;23.178;2024-03-02T00:46:41;32.47;;;17.05;;
86144;SDS011;76801;42.716;23.178;2024-03-02T00:51:47;30.13;;;16.40;;
86144;SDS011;76801;42.716;23.178;2024-03-02T00:54:14;32.50;;;14.45;;
86144;SDS011;76801;42.716;23.178;2024-03-02T00:56:40;32.92;;;15.80;;
86144;SDS011;76801;42.716;23.178;2024-03-02T00:59:06;28.35;;;16.13;;
86144;SDS011;76801;42.716;23.178;2024-03-02T01:01:33;27.52;;;14.50;;
86144;SDS011;76801;42.716;23.178;2024-03-02T01:03:59;30.80;;;15.23;;
86144;SDS011;76801;42.716;23.178;2024-03-02T01:06:24;31.30;;;16.92;;
86144;SDS011;76801;42.716;23.178;2024-03-02T01:08:50;28.83;;;15.30;;
86144;SDS011;76801;42.716;23.178;2024-03-02T01:11:16;30.33;;;16.73;;
86144;SDS011;76801;42.716;23.178;2024-03-02T01:13:42;29.40;;;16.65;;
86144;SDS011;76801;42.716;23.178;2024-03-02T01:16:08;29.60;;;15.52;;
86144;SDS011;76801;42.716;23.178;2024-03-02T01:18:33;31.15;;;16.15;;
86144;SDS011;76801;42.716;23.178;2024-03-02T01:20:59;27.92;;;15.40;;
86144;SDS011;76801;42.716;23.178;2024-03-02T01:23:24;28.25;;;15.18;;
86144;SDS011;76801;42.716;23.178;2024-03-02T01:25:50;31.17;;;15.93;;
86144;SDS011;76801;42.716;23.178;2024-03-02T01:28:17;26.40;;;15.43;;
86144;SDS011;76801;42.716;23.178;2024-03-02T01:30:43;27.52;;;16.13;;
86144;SDS011;76801;42.716;23.178;2024-03-02T01:33:09;32.28;;;14.30;;
86144;SDS011;76801;42.716;23.178;2024-03-02T01:35:35;25.95;;;14.45;;
86144;SDS011;76801;42.716;23.178;2024-03-02T01:38:02;31.73;;;15.30;;
86144;SDS011;76801;42.716;23.178;2024-03-02T01:40:27;32.15;;;18.05;;
86144;SDS011;76801;42.716;23.178;2024-03-02T01:42:53;31.30;;;16.55;;
86144;SDS011;76801;42.716;23.178;2024-03-02T01:45:19;29.65;;;15.68;;
86144;SDS011;76801;42.716;23.178;2024-03-02T01:47:45;30.55;;;18.13;;
86144;SDS011;76801;42.716;23.178;2024-03-02T01:50:11;29.00;;;17.25;;
86144;SDS011;76801;42.716;23.178;2024-03-02T01:52:36;30.75;;;16.75;;
86144;SDS011;76801;42.716;23.178;2024-03-02T01:55:02;33.13;;;16.15;;
86144;SDS011;76801;42.716;23.178;2024-03-02T01:57:28;33.28;;;17.40;;
86144;SDS011;76801;42.716;23.178;2024-03-02T01:59:54;27.35;;;15.88;;
86144;SDS011;76801;42.716;23.178;2024-03-02T02:02:20;29.55;;;17.40;;
86144;SDS011;76801;42.716;23.178;2024-03-02T02:04:46;30.20;;;16.50;;
86144;SDS011;76801;42.716;23.178;2024-03-02T02:07:12;30.23;;;15.18;;
86144;SDS011;76801;42.716;23.178;2024-03-02T02:09:39;26.42;;;15.52;;
86144;SDS011;76801;42.716;23.178;2024-03-02T02:12:07;28.17;;;15.30;;
86144;SDS011;76801;42.716;23.178;2024-03-02T02:14:34;30.90;;;17.52;;
86144;SDS011;76801;42.716;23.178;2024-03-02T02:16:59;29.50;;;15.40;;
86144;SDS011;76801;42.716;23.178;2024-03-02T02:19:25;33.88;;;17.25;;
86144;SDS011;76801;42.716;23.178;2024-03-02T02:21:50;37.15;;;18.15;;
86144;SDS011;76801;42.716;23.178;2024-03-02T02:24:16;40.03;;;18.92;;
86144;SDS011;76801;42.716;23.178;2024-03-02T02:26:41;31.70;;;17.15;;
86144;SDS011;76801;42.716;23.178;2024-03-02T02:29:06;28.17;;;17.52;;
86144;SDS011;76801;42.716;23.178;2024-03-02T02:31:39;28.58;;;16.15;;
86144;SDS011;76801;42.716;23.178;2024-03-02T02:34:05;31.35;;;15.07;;
86144;SDS011;76801;42.716;23.178;2024-03-02T02:36:31;27.58;;;15.63;;
86144;SDS011;76801;42.716;23.178;2024-03-02T02:38:57;28.25;;;14.85;;
86144;SDS011;76801;42.716;23.178;2024-03-02T02:41:28;31.23;;;16.85;;
86144;SDS011;76801;42.716;23.178;2024-03-02T02:43:53;25.90;;;14.90;;
86144;SDS011;76801;42.716;23.178;2024-03-02T02:46:19;31.30;;;15.43;;
86144;SDS011;76801;42.716;23.178;2024-03-02T02:48:44;29.75;;;14.45;;
86144;SDS011;76801;42.716;23.178;2024-03-02T02:51:10;31.00;;;14.45;;
86144;SDS011;76801;42.716;23.178;2024-03-02T02:53:35;29.17;;;14.98;;
86144;SDS011;76801;42.716;23.178;2024-03-02T02:56:00;31.48;;;15.20;;
86144;SDS011;76801;42.716;23.178;2024-03-02T02:58:26;28.05;;;14.98;;
86144;SDS011;76801;42.716;23.178;2024-03-02T03:00:52;34.20;;;16.48;;
86144;SDS011;76801;42.716;23.178;2024-03-02T03:03:19;28.17;;;15.90;;
86144;SDS011;76801;42.716;23.178;2024-03-02T03:05:45;32.00;;;17.45;;
86144;SDS011;76801;42.716;23.178;2024-03-02T03:08:10;29.90;;;16.23;;
86144;SDS011;76801;42.716;23.178;2024-03-02T03:10:35;30.85;;;15.60;;
86144;SDS011;76801;42.716;23.178;2024-03-02T03:13:01;30.40;;;15.95;;
86144;SDS011;76801;42.716;23.178;2024-03-02T03:15:27;29.77;;;16.55;;
86144;SDS011;76801;42.716;23.178;2024-03-02T03:17:52;29.48;;;14.23;;
86144;SDS011;76801;42.716;23.178;2024-03-02T03:20:18;31.92;;;17.45;;
86144;SDS011;76801;42.716;23.178;2024-03-02T03:22:43;30.63;;;15.02;;
86144;SDS011;76801;42.716;23.178;2024-03-02T03:25:09;29.23;;;16.92;;
86144;SDS011;76801;42.716;23.178;2024-03-02T03:27:34;34.08;;;16.38;;
86144;SDS011;76801;42.716;23.178;2024-03-02T03:29:59;31.60;;;15.45;;
86144;SDS011;76801;42.716;23.178;2024-03-02T03:32:25;37.22;;;18.35;;
86144;SDS011;76801;42.716;23.178;2024-03-02T03:34:50;31.85;;;15.82;;
86144;SDS011;76801;42.716;23.178;2024-03-02T03:37:16;28.40;;;14.85;;
86144;SDS011;76801;42.716;23.178;2024-03-02T03:39:41;30.95;;;15.20;;
86144;SDS011;76801;42.716;23.178;2024-03-02T03:42:07;30.35;;;15.95;;
86144;SDS011;76801;42.716;23.178;2024-03-02T03:44:32;28.35;;;16.02;;
86144;SDS011;76801;42.716;23.178;2024-03-02T03:46:58;30.92;;;15.30;;
86144;SDS011;76801;42.716;23.178;2024-03-02T03:49:24;32.03;;;14.93;;
86144;SDS011;76801;42.716;23.178;2024-03-02T03:51:49;29.85;;;15.38;;
86144;SDS011;76801;42.716;23.178;2024-03-02T03:54:14;31.08;;;15.95;;
86144;SDS011;76801;42.716;23.178;2024-03-02T03:56:40;30.10;;;16.30;;
86144;SDS011;76801;42.716;23.178;2024-03-02T03:59:05;28.13;;;15.70;;
86144;SDS011;76801;42.716;23.178;2024-03-02T04:01:31;30.52;;;15.73;;
86144;SDS011;76801;42.716;23.178;2024-03-02T04:03:57;32.47;;;15.60;;
86144;SDS011;76801;42.716;23.178;2024-03-02T04:06:23;31.35;;;15.57;;
86144;SDS011;76801;42.716;23.178;2024-03-02T04:08:48;26.42;;;14.65;;
86144;SDS011;76801;42.716;23.178;2024-03-02T04:11:14;29.75;;;15.23;;
86144;SDS011;76801;42.716;23.178;2024-03-02T04:13:39;29.30;;;15.60;;
86144;SDS011;76801;42.716;23.178;2024-03-02T04:16:04;31.70;;;16.17;;
86144;SDS011;76801;42.716;23.178;2024-03-02T04:18:30;31.80;;;16.13;;
86144;SDS011;76801;42.716;23.178;2024-03-02T04:20:57;28.50;;;15.63;;
86144;SDS011;76801;42.716;23.178;2024-03-02T04:23:24;31.13;;;16.08;;
86144;SDS011;76801;42.716;23.178;2024-03-02T04:25:49;34.10;;;17.15;;
86144;SDS011;76801;42.716;23.178;2024-03-02T04:28:15;31.58;;;16.23;;
86144;SDS011;76801;42.716;23.178;2024-03-02T04:30:40;31.45;;;16.30;;
86144;SDS011;76801;42.716;23.178;2024-03-02T04:33:06;38.05;;;17.30;;
86144;SDS011;76801;42.716;23.178;2024-03-02T04:35:34;37.42;;;19.95;;
86144;SDS011;76801;42.716;23.178;2024-03-02T04:38:00;40.63;;;19.23;;
86144;SDS011;76801;42.716;23.178;2024-03-02T04:40:25;38.63;;;17.83;;
86144;SDS011;76801;42.716;23.178;2024-03-02T04:42:51;33.08;;;15.82;;
86144;SDS011;76801;42.716;23.178;2024-03-02T04:45:16;32.17;;;16.20;;
86144;SDS011;76801;42.716;23.178;2024-03-02T04:47:42;29.73;;;16.25;;
86144;SDS011;76801;42.716;23.178;2024-03-02T04:50:07;37.03;;;18.20;;
86144;SDS011;76801;42.716;23.178;2024-03-02T04:52:33;34.72;;;18.50;;
86144;SDS011;76801;42.716;23.178;2024-03-02T04:54:58;34.33;;;18.15;;
86144;SDS011;76801;42.716;23.178;2024-03-02T04:57:49;30.67;;;16.75;;
86144;SDS011;76801;42.716;23.178;2024-03-02T05:00:16;27.98;;;14.65;;
86144;SDS011;76801;42.716;23.178;2024-03-02T05:02:42;31.20;;;16.00;;
86144;SDS011;76801;42.716;23.178;2024-03-02T05:05:07;29.45;;;17.25;;
86144;SDS011;76801;42.716;23.178;2024-03-02T05:07:33;31.50;;;15.15;;
86144;SDS011;76801;42.716;23.178;2024-03-02T05:09:58;27.83;;;14.57;;
86144;SDS011;76801;42.716;23.178;2024-03-02T05:12:24;33.67;;;17.40;;
86144;SDS011;76801;42.716;23.178;2024-03-02T05:15:19;30.17;;;15.95;;
86144;SDS011;76801;42.716;23.178;2024-03-02T05:17:44;29.33;;;13.68;;
86144;SDS011;76801;42.716;23.178;2024-03-02T05:20:09;27.60;;;14.43;;
86144;SDS011;76801;42.716;23.178;2024-03-02T05:22:35;33.80;;;16.33;;
86144;SDS011;76801;42.716;23.178;2024-03-02T05:25:02;31.10;;;15.77;;
86144;SDS011;76801;42.716;23.178;2024-03-02T05:27:28;34.92;;;15.90;;
86144;SDS011;76801;42.716;23.178;2024-03-02T05:29:54;30.92;;;16.50;;
86144;SDS011;76801;42.716;23.178;2024-03-02T05:32:19;31.10;;;16.75;;
86144;SDS011;76801;42.716;23.178;2024-03-02T05:34:44;32.40;;;16.45;;
86144;SDS011;76801;42.716;23.178;2024-03-02T05:37:10;30.50;;;16.20;;
86144;SDS011;76801;42.716;23.178;2024-03-02T05:39:36;30.75;;;15.43;;
86144;SDS011;76801;42.716;23.178;2024-03-02T05:42:01;30.23;;;15.20;;
86144;SDS011;76801;42.716;23.178;2024-03-02T05:44:28;28.42;;;14.60;;
86144;SDS011;76801;42.716;23.178;2024-03-02T05:46:53;29.35;;;15.95;;
86144;SDS011;76801;42.716;23.178;2024-03-02T05:49:18;27.05;;;15.32;;
86144;SDS011;76801;42.716;23.178;2024-03-02T05:51:44;40.22;;;22.20;;
86144;SDS011;76801;42.716;23.178;2024-03-02T05:54:09;35.30;;;18.23;;
86144;SDS011;76801;42.716;23.178;2024-03-02T05:56:35;33.80;;;18.70;;
86144;SDS011;76801;42.716;23.178;2024-03-02T05:59:01;33.35;;;17.27;;
86144;SDS011;76801;42.716;23.178;2024-03-02T06:01:38;31.48;;;16.20;;
86144;SDS011;76801;42.716;23.178;2024-03-02T06:04:04;30.00;;;17.88;;
86144;SDS011;76801;42.716;23.178;2024-03-02T06:06:30;34.20;;;18.13;;
86144;SDS011;76801;42.716;23.178;2024-03-02T06:08:57;31.83;;;17.27;;
86144;SDS011;76801;42.716;23.178;2024-03-02T06:11:23;33.88;;;17.10;;
86144;SDS011;76801;42.716;23.178;2024-03-02T06:13:49;31.00;;;16.83;;
86144;SDS011;76801;42.716;23.178;2024-03-02T06:16:15;38.03;;;18.88;;
86144;SDS011;76801;42.716;23.178;2024-03-02T06:18:40;35.55;;;19.10;;
86144;SDS011;76801;42.716;23.178;2024-03-02T06:21:05;32.92;;;18.70;;
86144;SDS011;76801;42.716;23.178;2024-03-02T06:23:31;31.13;;;16.60;;
86144;SDS011;76801;42.716;23.178;2024-03-02T06:25:57;32.70;;;17.50;;
86144;SDS011;76801;42.716;23.178;2024-03-02T06:28:22;32.97;;;18.20;;
86144;SDS011;76801;42.716;23.178;2024-03-02T06:30:47;30.30;;;15.43;;
86144;SDS011;76801;42.716;23.178;2024-03-02T06:33:13;33.72;;;16.42;;
86144;SDS011;76801;42.716;23.178;2024-03-02T06:35:38;31.23;;;17.50;;
86144;SDS011;76801;42.716;23.178;2024-03-02T06:38:04;25.50;;;12.93;;
86144;SDS011;76801;42.716;23.178;2024-03-02T06:40:29;32.08;;;16.23;;
86144;SDS011;76801;42.716;23.178;2024-03-02T06:43:00;32.70;;;16.42;;
86144;SDS011;76801;42.716;23.178;2024-03-02T06:45:28;28.10;;;16.95;;
86144;SDS011;76801;42.716;23.178;2024-03-02T06:47:55;30.60;;;16.00;;
86144;SDS011;76801;42.716;23.178;2024-03-02T06:50:21;26.73;;;15.57;;
86144;SDS011;76801;42.716;23.178;2024-03-02T06:52:46;30.17;;;14.43;;
86144;SDS011;76801;42.716;23.178;2024-03-02T06:55:12;35.67;;;17.17;;
86144;SDS011;76801;42.716;23.178;2024-03-02T06:57:37;28.20;;;14.88;;
86144;SDS011;76801;42.716;23.178;2024-03-02T07:00:02;32.85;;;17.48;;
86144;SDS011;76801;42.716;23.178;2024-03-02T07:02:30;26.48;;;14.45;;
86144;SDS011;76801;42.716;23.178;2024-03-02T07:04:55;31.45;;;17.33;;
86144;SDS011;76801;42.716;23.178;2024-03-02T07:07:21;32.88;;;16.52;;
86144;SDS011;76801;42.716;23.178;2024-03-02T07:09:46;28.83;;;15.98;;
86144;SDS011;76801;42.716;23.178;2024-03-02T07:12:12;34.17;;;17.02;;
86144;SDS011;76801;42.716;23.178;2024-03-02T07:14:38;33.85;;;17.90;;
86144;SDS011;76801;42.716;23.178;2024-03-02T07:17:22;37.92;;;17.48;;
86144;SDS011;76801;42.716;23.178;2024-03-02T07:19:47;34.90;;;17.23;;
86144;SDS011;76801;42.716;23.178;2024-03-02T07:22:13;32.90;;;17.73;;
86144;SDS011;76801;42.716;23.178;2024-03-02T07:24:42;37.22;;;18.52;;
86144;SDS011;76801;42.716;23.178;2024-03-02T07:27:08;35.53;;;16.13;;
86144;SDS011;76801;42.716;23.178;2024-03-02T07:29:34;41.47;;;18.52;;
86144;SDS011;76801;42.716;23.178;2024-03-02T07:31:59;32.90;;;17.45;;
86144;SDS011;76801;42.716;23.178;2024-03-02T07:34:25;30.23;;;18.33;;
86144;SDS011;76801;42.716;23.178;2024-03-02T07:36:50;35.85;;;18.95;;
86144;SDS011;76801;42.716;23.178;2024-03-02T07:39:16;42.63;;;18.30;;
86144;SDS011;76801;42.716;23.178;2024-03-02T07:41:41;35.55;;;18.23;;
86144;SDS011;76801;42.716;23.178;2024-03-02T07:44:07;40.95;;;20.15;;
86144;SDS011;76801;42.716;23.178;2024-03-02T07:46:32;39.83;;;19.35;;
86144;SDS011;76801;42.716;23.178;2024-03-02T07:48:57;36.17;;;18.40;;
86144;SDS011;76801;42.716;23.178;2024-03-02T07:51:23;34.42;;;15.60;;
86144;SDS011;76801;42.716;23.178;2024-03-02T07:53:48;34.15;;;16.63;;
86144;SDS011;76801;42.716;23.178;2024-03-02T07:56:14;30.70;;;15.52;;
86144;SDS011;76801;42.716;23.178;2024-03-02T07:58:46;30.13;;;15.60;;
86144;SDS011;76801;42.716;23.178;2024-03-02T08:01:13;34.92;;;16.77;;
86144;SDS011;76801;42.716;23.178;2024-03-02T08:03:38;29.05;;;14.68;;
86144;SDS011;76801;42.716;23.178;2024-03-02T08:06:04;33.60;;;18.67;;
86144;SDS011;76801;42.716;23.178;2024-03-02T08:08:29;38.90;;;18.92;;
86144;SDS011;76801;42.716;23.178;2024-03-02T08:10:55;34.72;;;17.45;;
86144;SDS011;76801;42.716;23.178;2024-03-02T08:13:20;37.33;;;18.92;;
86144;SDS011;76801;42.716;23.178;2024-03-02T08:15:45;37.78;;;18.05;;
86144;SDS011;76801;42.716;23.178;2024-03-02T08:18:11;30.55;;;14.43;;
86144;SDS011;76801;42.716;23.178;2024-03-02T08:20:37;32.80;;;17.17;;
86144;SDS011;76801;42.716;23.178;2024-03-02T08:23:02;34.30;;;17.80;;
86144;SDS011;76801;42.716;23.178;2024-03-02T08:25:28;34.10;;;16.70;;
86144;SDS011;76801;42.716;23.178;2024-03-02T08:27:54;32.92;;;15.93;;
86144;SDS011;76801;42.716;23.178;2024-03-02T08:30:19;29.90;;;15.85;;
86144;SDS011;76801;42.716;23.178;2024-03-02T08:32:44;36.00;;;17.48;;
86144;SDS011;76801;42.716;23.178;2024-03-02T08:35:12;38.50;;;22.85;;
86144;SDS011;76801;42.716;23.178;2024-03-02T08:37:38;39.17;;;20.25;;
86144;SDS011;76801;42.716;23.178;2024-03-02T08:40:05;34.88;;;18.90;;
86144;SDS011;76801;42.716;23.178;2024-03-02T08:42:32;38.67;;;18.77;;
86144;SDS011;76801;42.716;23.178;2024-03-02T08:44:57;47.58;;;22.55;;
86144;SDS011;76801;42.716;23.178;2024-03-02T08:47:23;41.72;;;17.45;;
86144;SDS011;76801;42.716;23.178;2024-03-02T08:49:48;38.78;;;18.38;;
86144;SDS011;76801;42.716;23.178;2024-03-02T08:52:14;38.40;;;18.48;;
86144;SDS011;76801;42.716;23.178;2024-03-02T08:54:42;35.25;;;17.48;;
86144;SDS011;76801;42.716;23.178;2024-03-02T08:57:07;33.53;;;16.90;;
86144;SDS011;76801;42.716;23.178;2024-03-02T08:59:32;29.67;;;17.02;;
86144;SDS011;76801;42.716;23.178;2024-03-02T09:01:58;30.35;;;15.20;;
86144;SDS011;76801;42.716;23.178;2024-03-02T09:04:24;35.90;;;18.73;;
86144;SDS011;76801;42.716;23.178;2024-03-02T09:06:49;32.55;;;17.23;;
86144;SDS011;76801;42.716;23.178;2024-03-02T09:09:15;34.67;;;18.17;;
86144;SDS011;76801;42.716;23.178;2024-03-02T09:11:40;31.55;;;16.48;;
86144;SDS011;76801;42.716;23.178;2024-03-02T09:14:08;31.48;;;17.42;;
86144;SDS011;76801;42.716;23.178;2024-03-02T09:16:33;31.10;;;17.10;;
86144;SDS011;76801;42.716;23.178;2024-03-02T09:18:59;32.00;;;17.77;;
86144;SDS011;76801;42.716;23.178;2024-03-02T09:21:25;37.00;;;18.35;;
86144;SDS011;76801;42.716;23.178;2024-03-02T09:23:50;32.22;;;17.17;;
86144;SDS011;76801;42.716;23.178;2024-03-02T09:26:16;35.42;;;18.20;;
86144;SDS011;76801;42.716;23.178;2024-03-02T09:28:44;33.42;;;15.75;;
86144;SDS011;76801;42.716;23.178;2024-03-02T09:31:09;28.48;;;14.93;;
86144;SDS011;76801;42.716;23.178;2024-03-02T09:33:35;34.72;;;17.50;;
86144;SDS011;76801;42.716;23.178;2024-03-02T09:36:00;37.95;;;17.77;;
86144;SDS011;76801;42.716;23.178;2024-03-02T09:38:25;31.38;;;17.35;;
86144;SDS011;76801;42.716;23.178;2024-03-02T09:40:51;38.05;;;18.35;;
86144;SDS011;76801;42.716;23.178;2024-03-02T09:43:16;35.13;;;18.27;;
86144;SDS011;76801;42.716;23.178;2024-03-02T09:45:42;31.42;;;18.25;;
86144;SDS011;76801;42.716;23.178;2024-03-02T09:48:08;25.45;;;15.32;;
86144;SDS011;76801;42.716;23.178;2024-03-02T09:50:33;26.90;;;14.63;;
86144;SDS011;76801;42.716;23.178;2024-03-02T09:52:59;28.35;;;15.77;;
86144;SDS011;76801;42.716;23.178;2024-03-02T09:55:24;26.45;;;14.90;;
86144;SDS011;76801;42.716;23.178;2024-03-02T09:57:50;30.17;;;17.10;;
86144;SDS011;76801;42.716;23.178;2024-03-02T10:00:16;30.15;;;16.17;;
86144;SDS011;76801;42.716;23.178;2024-03-02T10:02:42;29.60;;;15.38;;
86144;SDS011;76801;42.716;23.178;2024-03-02T10:05:11;30.33;;;15.25;;
86144;SDS011;76801;42.716;23.178;2024-03-02T10:07:37;27.40;;;15.73;;
86144;SDS011;76801;42.716;23.178;2024-03-02T10:10:14;24.88;;;14.32;;
86144;SDS011;76801;42.716;23.178;2024-03-02T10:12:40;27.00;;;13.88;;
86144;SDS011;76801;42.716;23.178;2024-03-02T10:15:06;26.63;;;13.93;;
86144;SDS011;76801;42.716;23.178;2024-03-02T10:17:32;29.00;;;15.23;;
86144;SDS011;76801;42.716;23.178;2024-03-02T10:19:58;25.88;;;12.65;;
86144;SDS011;76801;42.716;23.178;2024-03-02T10:22:23;29.17;;;15.45;;
86144;SDS011;76801;42.716;23.178;2024-03-02T10:24:49;31.05;;;15.63;;
86144;SDS011;76801;42.716;23.178;2024-03-02T10:27:15;28.40;;;15.48;;
86144;SDS011;76801;42.716;23.178;2024-03-02T10:29:41;25.23;;;13.75;;
86144;SDS011;76801;42.716;23.178;2024-03-02T10:32:09;28.33;;;15.43;;
86144;SDS011;76801;42.716;23.178;2024-03-02T10:34:45;31.35;;;17.63;;
86144;SDS011;76801;42.716;23.178;2024-03-02T10:37:12;26.60;;;15.85;;
86144;SDS011;76801;42.716;23.178;2024-03-02T10:39:37;25.65;;;14.68;;
86144;SDS011;76801;42.716;23.178;2024-03-02T10:42:06;30.88;;;13.43;;
86144;SDS011;76801;42.716;23.178;2024-03-02T10:44:32;26.50;;;14.60;;
86144;SDS011;76801;42.716;23.178;2024-03-02T10:47:02;24.42;;;13.45;;
86144;SDS011;76801;42.716;23.178;2024-03-02T10:49:29;24.52;;;14.20;;
86144;SDS011;76801;42.716;23.178;2024-03-02T10:51:57;24.27;;;13.27;;
86144;SDS011;76801;42.716;23.178;2024-03-02T10:54:23;28.55;;;12.48;;
86144;SDS011;76801;42.716;23.178;2024-03-02T10:56:51;26.75;;;14.43;;
86144;SDS011;76801;42.716;23.178;2024-03-02T11:01:51;22.58;;;13.98;;
86144;SDS011;76801;42.716;23.178;2024-03-02T11:04:25;21.15;;;12.73;;
86144;SDS011;76801;42.716;23.178;2024-03-02T11:06:52;26.83;;;15.38;;
86144;SDS011;76801;42.716;23.178;2024-03-02T11:09:30;23.17;;;12.35;;
86144;SDS011;76801;42.716;23.178;2024-03-02T11:12:03;20.40;;;12.18;;
86144;SDS011;76801;42.716;23.178;2024-03-02T11:14:45;22.92;;;13.88;;
86144;SDS011;76801;42.716;23.178;2024-03-02T11:17:11;27.90;;;14.38;;
86144;SDS011;76801;42.716;23.178;2024-03-02T11:19:38;25.00;;;14.25;;
86144;SDS011;76801;42.716;23.178;2024-03-02T11:22:05;25.60;;;15.65;;
86144;SDS011;76801;42.716;23.178;2024-03-02T11:24:32;26.48;;;14.85;;
86144;SDS011;76801;42.716;23.178;2024-03-02T11:27:01;27.13;;;14.90;;
86144;SDS011;76801;42.716;23.178;2024-03-02T11:32:02;26.20;;;15.13;;
86144;SDS011;76801;42.716;23.178;2024-03-02T11:34:37;27.67;;;15.38;;
86144;SDS011;76801;42.716;23.178;2024-03-02T11:37:04;22.80;;;14.77;;
86144;SDS011;76801;42.716;23.178;2024-03-02T11:39:30;26.25;;;15.35;;
86144;SDS011;76801;42.716;23.178;2024-03-02T11:41:56;29.25;;;15.13;;
86144;SDS011;76801;42.716;23.178;2024-03-02T11:44:22;30.67;;;14.80;;
86144;SDS011;76801;42.716;23.178;2024-03-02T11:47:00;28.08;;;13.07;;
86144;SDS011;76801;42.716;23.178;2024-03-02T11:49:36;29.75;;;17.55;;
86144;SDS011;76801;42.716;23.178;2024-03-02T11:52:04;22.98;;;14.45;;
86144;SDS011;76801;42.716;23.178;2024-03-02T11:54:32;24.77;;;13.52;;
86144;SDS011;76801;42.716;23.178;2024-03-02T11:57:00;23.75;;;12.93;;
86144;SDS011;76801;42.716;23.178;2024-03-02T11:59:27;21.50;;;10.05;;
86144;SDS011;76801;42.716;23.178;2024-03-02T12:01:54;26.30;;;14.73;;
86144;SDS011;76801;42.716;23.178;2024-03-02T12:04:20;27.83;;;13.88;;
86144;SDS011;76801;42.716;23.178;2024-03-02T12:06:46;27.23;;;13.55;;
86144;SDS011;76801;42.716;23.178;2024-03-02T12:09:13;23.00;;;14.02;;
86144;SDS011;76801;42.716;23.178;2024-03-02T12:11:39;29.73;;;15.02;;
86144;SDS011;76801;42.716;23.178;2024-03-02T12:14:10;28.02;;;14.88;;
86144;SDS011;76801;42.716;23.178;2024-03-02T12:16:37;23.40;;;14.25;;
86144;SDS011;76801;42.716;23.178;2024-03-02T12:19:04;27.13;;;15.15;;
86144;SDS011;76801;42.716;23.178;2024-03-02T12:21:30;26.00;;;13.73;;
86144;SDS011;76801;42.716;23.178;2024-03-02T12:23:56;28.02;;;15.70;;
86144;SDS011;76801;42.716;23.178;2024-03-02T12:26:21;25.05;;;15.50;;
86144;SDS011;76801;42.716;23.178;2024-03-02T12:28:47;23.10;;;13.57;;
86144;SDS011;76801;42.716;23.178;2024-03-02T12:31:13;26.08;;;12.65;;
86144;SDS011;76801;42.716;23.178;2024-03-02T12:33:39;26.67;;;12.90;;
86144;SDS011;76801;42.716;23.178;2024-03-02T12:36:09;27.33;;;14.65;;
86144;SDS011;76801;42.716;23.178;2024-03-02T12:38:34;26.52;;;13.93;;
86144;SDS011;76801;42.716;23.178;2024-03-02T12:41:00;26.50;;;14.60;;
86144;SDS011;76801;42.716;23.178;2024-03-02T12:43:29;26.90;;;15.13;;
86144;SDS011;76801;42.716;23.178;2024-03-02T12:45:55;38.70;;;19.13;;
86144;SDS011;76801;42.716;23.178;2024-03-02T12:48:21;31.48;;;16.58;;
86144;SDS011;76801;42.716;23.178;2024-03-02T12:50:46;32.78;;;18.83;;
86144;SDS011;76801;42.716;23.178;2024-03-02T12:53:15;33.95;;;17.25;;
86144;SDS011;76801;42.716;23.178;2024-03-02T12:55:41;23.65;;;14.23;;
86144;SDS011;76801;42.716;23.178;2024-03-02T12:58:15;24.98;;;13.25;;
86144;SDS011;76801;42.716;23.178;2024-03-02T13:00:41;22.80;;;12.80;;
86144;SDS011;76801;42.716;23.178;2024-03-02T13:03:07;24.90;;;13.45;;
86144;SDS011;76801;42.716;23.178;2024-03-02T13:05:32;25.38;;;14.70;;
86144;SDS011;76801;42.716;23.178;2024-03-02T13:07:58;22.77;;;12.52;;
86144;SDS011;76801;42.716;23.178;2024-03-02T13:10:24;27.23;;;11.75;;
86144;SDS011;76801;42.716;23.178;2024-03-02T13:12:50;23.95;;;13.93;;
86144;SDS011;76801;42.716;23.178;2024-03-02T13:15:15;26.10;;;13.40;;
86144;SDS011;76801;42.716;23.178;2024-03-02T13:17:41;24.52;;;14.30;;
86144;SDS011;76801;42.716;23.178;2024-03-02T13:20:06;30.83;;;16.20;;
86144;SDS011;76801;42.716;23.178;2024-03-02T13:22:35;27.92;;;11.82;;
86144;SDS011;76801;42.716;23.178;2024-03-02T13:25:01;21.52;;;12.70;;
86144;SDS011;76801;42.716;23.178;2024-03-02T13:27:30;20.02;;;12.60;;
86144;SDS011;76801;42.716;23.178;2024-03-02T13:29:57;25.73;;;12.52;;
86144;SDS011;76801;42.716;23.178;2024-03-02T13:32:22;27.25;;;14.57;;
86144;SDS011;76801;42.716;23.178;2024-03-02T13:34:49;27.83;;;14.80;;
86144;SDS011;76801;42.716;23.178;2024-03-02T13:37:14;31.40;;;16.17;;
86144;SDS011;76801;42.716;23.178;2024-03-02T13:39:40;24.40;;;13.68;;
86144;SDS011;76801;42.716;23.178;2024-03-02T13:42:07;26.00;;;14.13;;
86144;SDS011;76801;42.716;23.178;2024-03-02T13:44:34;27.90;;;15.98;;
86144;SDS011;76801;42.716;23.178;2024-03-02T13:47:00;25.98;;;14.77;;
86144;SDS011;76801;42.716;23.178;2024-03-02T13:49:26;27.08;;;13.90;;
86144;SDS011;76801;42.716;23.178;2024-03-02T13:52:00;22.75;;;14.00;;
86144;SDS011;76801;42.716;23.178;2024-03-02T13:54:28;27.52;;;15.88;;
86144;SDS011;76801;42.716;23.178;2024-03-02T13:56:54;28.65;;;14.35;;
86144;SDS011;76801;42.716;23.178;2024-03-02T13:59:20;26.27;;;15.20;;
86144;SDS011;76801;42.716;23.178;2024-03-02T14:01:45;22.38;;;13.40;;
86144;SDS011;76801;42.716;23.178;2024-03-02T14:04:10;24.40;;;14.23;;
86144;SDS011;76801;42.716;23.178;2024-03-02T14:06:37;22.92;;;13.55;;
86144;SDS011;76801;42.716;23.178;2024-03-02T14:09:03;23.42;;;14.45;;
86144;SDS011;76801;42.716;23.178;2024-03-02T14:11:28;30.55;;;16.48;;